sensor_id;sensor_type;location;lat;lon;timestamp;P1;durP1;ratioP1;P2;durP2;ratioP2
37945;SDS011;23769;52.478;13.448;2022-12-05T17:35:59;158.60;;;52.50;;
37945;SDS011;23769;52.478;13.448;2022-12-05T17:38:26;150.40;;;50.83;;
37945;SDS011;23769;52.478;13.448;2022-12-05T17:40:53;142.25;;;48.85;;
37945;SDS011;23769;52.478;13.448;2022-12-05T17:43:21;123.28;;;48.15;;
37945;SDS011;23769;52.478;13.448;2022-12-05T17:45:49;134.40;;;46.85;;
37945;SDS011;23769;52.478;13.448;2022-12-05T17:48:16;126.80;;;46.00;;
37945;SDS011;23769;52.478;13.448;2022-12-05T17:50:44;120.10;;;42.97;;
37945;SDS011;23769;52.478;13.448;2022-12-05T17:53:14;106.22;;;41.08;;
37945;SDS011;23769;52.478;13.448;2022-12-05T17:55:41;120.65;;;46.17;;
37945;SDS011;23769;52.478;13.448;2022-12-05T17:58:09;128.90;;;49.88;;
37945;SDS011;23769;52.478;13.448;2022-12-05T18:00:38;101.75;;;40.00;;
37945;SDS011;23769;52.478;13.448;2022-12-05T18:03:05;108.20;;;40.30;;
37945;SDS011;23769;52.478;13.448;2022-12-05T18:05:32;114.40;;;40.53;;
37945;SDS011;23769;52.478;13.448;2022-12-05T18:07:59;98.60;;;39.45;;
37945;SDS011;23769;52.478;13.448;2022-12-05T18:10:28;88.53;;;36.40;;
37945;SDS011;23769;52.478;13.448;2022-12-05T18:12:55;87.30;;;36.33;;
37945;SDS011;23769;52.478;13.448;2022-12-05T18:15:22;88.75;;;35.05;;
37945;SDS011;23769;52.478;13.448;2022-12-05T18:17:50;93.15;;;34.22;;
37945;SDS011;23769;52.478;13.448;2022-12-05T18:20:17;82.95;;;32.67;;
37945;SDS011;23769;52.478;13.448;2022-12-05T18:22:44;89.38;;;36.13;;
37945;SDS011;23769;52.478;13.448;2022-12-05T18:25:12;85.03;;;34.67;;
37945;SDS011;23769;52.478;13.448;2022-12-05T18:27:41;86.22;;;34.20;;
37945;SDS011;23769;52.478;13.448;2022-12-05T18:30:09;79.72;;;34.05;;
37945;SDS011;23769;52.478;13.448;2022-12-05T18:32:37;94.35;;;34.90;;
37945;SDS011;23769;52.478;13.448;2022-12-05T18:35:04;76.78;;;32.28;;
37945;SDS011;23769;52.478;13.448;2022-12-05T18:37:34;78.13;;;30.70;;
37945;SDS011;23769;52.478;13.448;2022-12-05T18:40:01;76.10;;;32.17;;
37945;SDS011;23769;52.478;13.448;2022-12-05T18:42:28;74.93;;;31.23;;
37945;SDS011;23769;52.478;13.448;2022-12-05T18:44:57;73.82;;;32.00;;
37945;SDS011;23769;52.478;13.448;2022-12-05T18:47:24;75.38;;;31.95;;
37945;SDS011;23769;52.478;13.448;2022-12-05T18:49:52;68.45;;;28.90;;
37945;SDS011;23769;52.478;13.448;2022-12-05T18:52:19;72.93;;;30.50;;
37945;SDS011;23769;52.478;13.448;2022-12-05T18:54:46;73.10;;;30.70;;
37945;SDS011;23769;52.478;13.448;2022-12-05T18:57:14;77.65;;;31.50;;
37945;SDS011;23769;52.478;13.448;2022-12-05T18:59:44;73.15;;;30.20;;
37945;SDS011;23769;52.478;13.448;2022-12-05T19:02:17;74.82;;;30.98;;
37945;SDS011;23769;52.478;13.448;2022-12-05T19:04:45;78.55;;;33.42;;
37945;SDS011;23769;52.478;13.448;2022-12-05T19:07:12;80.60;;;33.42;;
37945;SDS011;23769;52.478;13.448;2022-12-05T19:09:39;77.18;;;32.35;;
37945;SDS011;23769;52.478;13.448;2022-12-05T19:12:06;68.03;;;31.48;;
37945;SDS011;23769;52.478;13.448;2022-12-05T19:14:33;77.20;;;31.58;;
37945;SDS011;23769;52.478;13.448;2022-12-05T19:17:01;73.25;;;30.30;;
37945;SDS011;23769;52.478;13.448;2022-12-05T19:19:30;78.00;;;32.15;;
37945;SDS011;23769;52.478;13.448;2022-12-05T19:21:57;67.13;;;29.67;;
37945;SDS011;23769;52.478;13.448;2022-12-05T19:24:26;72.63;;;30.38;;
37945;SDS011;23769;52.478;13.448;2022-12-05T19:26:53;75.63;;;30.35;;
37945;SDS011;23769;52.478;13.448;2022-12-05T19:29:20;73.20;;;32.63;;
37945;SDS011;23769;52.478;13.448;2022-12-05T19:31:47;72.90;;;30.92;;
37945;SDS011;23769;52.478;13.448;2022-12-05T19:34:15;74.43;;;30.58;;
37945;SDS011;23769;52.478;13.448;2022-12-05T19:36:44;68.43;;;29.48;;
37945;SDS011;23769;52.478;13.448;2022-12-05T19:39:12;78.97;;;33.47;;
37945;SDS011;23769;52.478;13.448;2022-12-05T19:41:40;66.75;;;28.85;;
37945;SDS011;23769;52.478;13.448;2022-12-05T19:44:08;66.38;;;29.23;;
37945;SDS011;23769;52.478;13.448;2022-12-05T19:46:35;105.35;;;41.08;;
37945;SDS011;23769;52.478;13.448;2022-12-05T19:49:03;103.32;;;42.70;;
37945;SDS011;23769;52.478;13.448;2022-12-05T19:51:30;76.53;;;31.75;;
37945;SDS011;23769;52.478;13.448;2022-12-05T19:53:59;81.25;;;33.38;;
37945;SDS011;23769;52.478;13.448;2022-12-05T19:56:27;78.03;;;33.92;;
37945;SDS011;23769;52.478;13.448;2022-12-05T19:58:55;73.47;;;30.52;;
37945;SDS011;23769;52.478;13.448;2022-12-05T20:01:23;74.22;;;31.48;;
37945;SDS011;23769;52.478;13.448;2022-12-05T20:03:51;69.43;;;29.33;;
37945;SDS011;23769;52.478;13.448;2022-12-05T20:06:19;67.38;;;28.20;;
37945;SDS011;23769;52.478;13.448;2022-12-05T20:08:46;69.38;;;29.05;;
37945;SDS011;23769;52.478;13.448;2022-12-05T20:11:18;68.43;;;28.83;;
37945;SDS011;23769;52.478;13.448;2022-12-05T20:13:45;66.82;;;27.98;;
37945;SDS011;23769;52.478;13.448;2022-12-05T20:16:21;63.63;;;26.95;;
37945;SDS011;23769;52.478;13.448;2022-12-05T20:18:55;60.45;;;27.77;;
37945;SDS011;23769;52.478;13.448;2022-12-05T20:21:29;68.78;;;26.60;;
37945;SDS011;23769;52.478;13.448;2022-12-05T20:23:57;60.75;;;25.45;;
37945;SDS011;23769;52.478;13.448;2022-12-05T20:26:27;65.63;;;26.17;;
37945;SDS011;23769;52.478;13.448;2022-12-05T20:28:55;59.78;;;25.77;;
37945;SDS011;23769;52.478;13.448;2022-12-05T20:31:23;59.05;;;26.55;;
37945;SDS011;23769;52.478;13.448;2022-12-05T20:33:51;50.95;;;22.52;;
37945;SDS011;23769;52.478;13.448;2022-12-05T20:36:19;46.10;;;23.42;;
37945;SDS011;23769;52.478;13.448;2022-12-05T20:38:47;41.55;;;22.17;;
37945;SDS011;23769;52.478;13.448;2022-12-05T20:41:15;46.83;;;22.33;;
37945;SDS011;23769;52.478;13.448;2022-12-05T20:43:44;48.50;;;23.33;;
37945;SDS011;23769;52.478;13.448;2022-12-05T20:46:12;42.63;;;21.90;;
37945;SDS011;23769;52.478;13.448;2022-12-05T20:48:40;40.15;;;20.98;;
37945;SDS011;23769;52.478;13.448;2022-12-05T20:51:08;35.58;;;20.13;;
37945;SDS011;23769;52.478;13.448;2022-12-05T20:53:36;35.17;;;19.60;;
37945;SDS011;23769;52.478;13.448;2022-12-05T20:56:05;36.58;;;19.10;;
37945;SDS011;23769;52.478;13.448;2022-12-05T20:58:33;36.10;;;20.20;;
37945;SDS011;23769;52.478;13.448;2022-12-05T21:01:03;43.72;;;21.42;;
37945;SDS011;23769;52.478;13.448;2022-12-05T21:03:30;36.25;;;19.52;;
37945;SDS011;23769;52.478;13.448;2022-12-05T21:05:58;34.33;;;19.52;;
37945;SDS011;23769;52.478;13.448;2022-12-05T21:08:25;39.88;;;21.15;;
37945;SDS011;23769;52.478;13.448;2022-12-05T21:10:52;34.58;;;18.55;;
37945;SDS011;23769;52.478;13.448;2022-12-05T21:13:19;36.80;;;18.88;;
37945;SDS011;23769;52.478;13.448;2022-12-05T21:15:47;31.15;;;16.70;;
37945;SDS011;23769;52.478;13.448;2022-12-05T21:18:15;32.38;;;18.83;;
37945;SDS011;23769;52.478;13.448;2022-12-05T21:20:42;35.72;;;19.58;;
37945;SDS011;23769;52.478;13.448;2022-12-05T21:23:10;35.58;;;17.52;;
37945;SDS011;23769;52.478;13.448;2022-12-05T21:25:37;33.97;;;18.52;;
37945;SDS011;23769;52.478;13.448;2022-12-05T21:28:04;35.13;;;19.95;;
37945;SDS011;23769;52.478;13.448;2022-12-05T21:30:32;33.25;;;17.70;;
37945;SDS011;23769;52.478;13.448;2022-12-05T21:33:00;30.83;;;16.08;;
37945;SDS011;23769;52.478;13.448;2022-12-05T21:35:30;33.63;;;16.42;;
37945;SDS011;23769;52.478;13.448;2022-12-05T21:37:58;36.03;;;18.40;;
37945;SDS011;23769;52.478;13.448;2022-12-05T21:40:26;32.92;;;18.10;;
37945;SDS011;23769;52.478;13.448;2022-12-05T21:42:53;30.38;;;16.77;;
37945;SDS011;23769;52.478;13.448;2022-12-05T21:45:21;35.45;;;18.52;;
37945;SDS011;23769;52.478;13.448;2022-12-05T21:47:48;27.45;;;16.00;;
37945;SDS011;23769;52.478;13.448;2022-12-05T21:50:16;29.52;;;16.60;;
37945;SDS011;23769;52.478;13.448;2022-12-05T21:52:44;30.80;;;16.70;;
37945;SDS011;23769;52.478;13.448;2022-12-05T21:55:12;29.92;;;16.70;;
37945;SDS011;23769;52.478;13.448;2022-12-05T21:57:39;27.80;;;16.30;;
37945;SDS011;23769;52.478;13.448;2022-12-05T22:00:07;34.28;;;17.70;;
37945;SDS011;23769;52.478;13.448;2022-12-05T22:02:34;27.25;;;15.88;;
37945;SDS011;23769;52.478;13.448;2022-12-05T22:05:01;30.48;;;17.02;;
37945;SDS011;23769;52.478;13.448;2022-12-05T22:07:28;27.70;;;15.48;;
37945;SDS011;23769;52.478;13.448;2022-12-05T22:09:57;31.70;;;17.15;;
37945;SDS011;23769;52.478;13.448;2022-12-05T22:12:24;30.42;;;16.77;;
37945;SDS011;23769;52.478;13.448;2022-12-05T22:14:51;62.20;;;33.85;;
37945;SDS011;23769;52.478;13.448;2022-12-05T22:17:18;31.02;;;17.05;;
37945;SDS011;23769;52.478;13.448;2022-12-05T22:19:46;33.13;;;17.67;;
37945;SDS011;23769;52.478;13.448;2022-12-05T22:22:13;29.33;;;16.98;;
37945;SDS011;23769;52.478;13.448;2022-12-05T22:24:40;26.30;;;15.20;;
37945;SDS011;23769;52.478;13.448;2022-12-05T22:27:09;85.78;;;40.15;;
37945;SDS011;23769;52.478;13.448;2022-12-05T22:29:36;31.55;;;16.98;;
37945;SDS011;23769;52.478;13.448;2022-12-05T22:32:03;28.90;;;16.30;;
37945;SDS011;23769;52.478;13.448;2022-12-05T22:34:30;30.17;;;15.82;;
37945;SDS011;23769;52.478;13.448;2022-12-05T22:36:57;28.67;;;14.90;;
37945;SDS011;23769;52.478;13.448;2022-12-05T22:39:25;28.83;;;15.93;;
37945;SDS011;23769;52.478;13.448;2022-12-05T22:41:52;31.25;;;17.75;;
37945;SDS011;23769;52.478;13.448;2022-12-05T22:44:20;31.05;;;15.30;;
37945;SDS011;23769;52.478;13.448;2022-12-05T22:46:48;34.20;;;17.38;;
37945;SDS011;23769;52.478;13.448;2022-12-05T22:49:15;31.67;;;16.27;;
37945;SDS011;23769;52.478;13.448;2022-12-05T22:51:42;29.02;;;15.13;;
37945;SDS011;23769;52.478;13.448;2022-12-05T22:54:09;30.23;;;15.35;;
37945;SDS011;23769;52.478;13.448;2022-12-05T22:56:37;32.17;;;17.02;;
37945;SDS011;23769;52.478;13.448;2022-12-05T22:59:04;27.23;;;15.40;;
37945;SDS011;23769;52.478;13.448;2022-12-05T23:01:33;29.95;;;15.98;;
37945;SDS011;23769;52.478;13.448;2022-12-05T23:04:01;27.05;;;15.00;;
37945;SDS011;23769;52.478;13.448;2022-12-05T23:06:29;28.73;;;16.00;;
37945;SDS011;23769;52.478;13.448;2022-12-05T23:08:56;26.50;;;15.20;;
37945;SDS011;23769;52.478;13.448;2022-12-05T23:11:24;28.95;;;15.63;;
37945;SDS011;23769;52.478;13.448;2022-12-05T23:13:51;25.98;;;14.63;;
37945;SDS011;23769;52.478;13.448;2022-12-05T23:16:20;23.92;;;14.43;;
37945;SDS011;23769;52.478;13.448;2022-12-05T23:18:51;25.27;;;15.68;;
37945;SDS011;23769;52.478;13.448;2022-12-05T23:21:20;27.25;;;15.73;;
37945;SDS011;23769;52.478;13.448;2022-12-05T23:23:48;24.42;;;14.20;;
37945;SDS011;23769;52.478;13.448;2022-12-05T23:26:16;26.23;;;15.13;;
37945;SDS011;23769;52.478;13.448;2022-12-05T23:28:43;26.05;;;14.20;;
37945;SDS011;23769;52.478;13.448;2022-12-05T23:31:11;25.02;;;14.13;;
37945;SDS011;23769;52.478;13.448;2022-12-05T23:33:39;21.63;;;13.38;;
37945;SDS011;23769;52.478;13.448;2022-12-05T23:36:08;23.20;;;14.18;;
37945;SDS011;23769;52.478;13.448;2022-12-05T23:38:35;24.63;;;13.57;;
37945;SDS011;23769;52.478;13.448;2022-12-05T23:41:03;21.23;;;12.23;;
37945;SDS011;23769;52.478;13.448;2022-12-05T23:43:31;23.45;;;14.23;;
37945;SDS011;23769;52.478;13.448;2022-12-05T23:45:59;21.42;;;13.70;;
37945;SDS011;23769;52.478;13.448;2022-12-05T23:48:26;20.17;;;12.23;;
37945;SDS011;23769;52.478;13.448;2022-12-05T23:50:57;21.02;;;11.80;;
37945;SDS011;23769;52.478;13.448;2022-12-05T23:53:26;21.20;;;12.05;;
37945;SDS011;23769;52.478;13.448;2022-12-05T23:55:53;18.42;;;11.48;;
37945;SDS011;23769;52.478;13.448;2022-12-05T23:58:20;19.65;;;11.98;;
